createdAt,value
2023-06-05T00:00:30.293Z,11.20
2023-06-05T00:02:31.881Z,11.17
2023-06-05T00:04:33.529Z,11.16
2023-06-05T00:06:35.948Z,11.14
2023-06-05T00:08:37.499Z,11.12
2023-06-05T00:10:39.033Z,11.09
2023-06-05T00:12:42.191Z,11.07
2023-06-05T00:14:44.886Z,11.04
2023-06-05T00:16:46.498Z,10.99
2023-06-05T00:18:49.262Z,10.97
2023-06-05T00:20:50.793Z,10.94
2023-06-05T00:22:52.368Z,10.92
2023-06-05T00:24:53.911Z,10.91
2023-06-05T00:26:55.436Z,10.89
2023-06-05T00:28:56.910Z,10.87
2023-06-05T00:30:58.629Z,10.85
2023-06-05T00:33:00.170Z,10.83
2023-06-05T00:35:01.988Z,10.80
2023-06-05T00:37:03.989Z,10.80
2023-06-05T00:39:05.457Z,10.79
2023-06-05T00:41:07.151Z,10.76
2023-06-05T00:43:08.845Z,10.73
2023-06-05T00:45:10.492Z,10.70
2023-06-05T00:47:12.078Z,10.69
2023-06-05T00:49:13.951Z,10.67
2023-06-05T00:51:17.151Z,10.65
2023-06-05T00:53:18.876Z,10.65
2023-06-05T00:55:20.728Z,10.65
2023-06-05T00:57:25.473Z,10.66
2023-06-05T00:59:27.622Z,10.62
2023-06-05T01:01:30.158Z,10.64
2023-06-05T01:03:34.866Z,10.63
2023-06-05T01:05:38.080Z,10.67
2023-06-05T01:07:40.912Z,10.68
2023-06-05T01:09:43.137Z,10.70
2023-06-05T01:11:59.282Z,10.73
2023-06-05T01:14:17.261Z,10.77
2023-06-05T01:16:20.022Z,10.75
2023-06-05T01:18:24.277Z,10.75
2023-06-05T01:20:36.195Z,10.74
2023-06-05T01:22:38.529Z,10.75
2023-06-05T01:24:41.538Z,10.74
2023-06-05T01:27:18.916Z,10.73
2023-06-05T01:29:35.109Z,10.71
2023-06-05T01:31:39.343Z,10.71
2023-06-05T01:33:53.136Z,10.73
2023-06-05T01:35:56.987Z,10.71
2023-06-05T01:38:00.601Z,10.71
2023-06-05T01:40:03.621Z,10.71
2023-06-05T01:42:05.741Z,10.72
2023-06-05T01:44:09.420Z,10.70
2023-06-05T01:46:11.782Z,10.70
2023-06-05T01:48:14.388Z,10.69
2023-06-05T01:50:16.367Z,10.69
2023-06-05T01:52:17.911Z,10.69
2023-06-05T01:54:19.911Z,10.67
2023-06-05T01:56:25.341Z,10.66
2023-06-05T01:58:28.164Z,10.65
2023-06-05T02:00:29.706Z,10.63
2023-06-05T02:02:31.486Z,10.62
2023-06-05T02:04:33.608Z,10.61
2023-06-05T02:06:45.046Z,10.59
2023-06-05T02:08:46.624Z,10.59
2023-06-05T02:10:48.120Z,10.58
2023-06-05T02:12:49.690Z,10.57
2023-06-05T02:14:51.220Z,10.59
2023-06-05T02:16:52.734Z,10.55
2023-06-05T02:18:54.226Z,10.53
2023-06-05T02:20:58.334Z,10.52
2023-06-05T02:23:00.007Z,10.52
2023-06-05T02:25:01.793Z,10.50
2023-06-05T02:27:03.819Z,10.48
2023-06-05T02:29:06.535Z,10.48
2023-06-05T02:31:08.252Z,10.48
2023-06-05T02:33:09.955Z,10.48
2023-06-05T02:35:12.117Z,10.45
2023-06-05T02:37:13.748Z,10.48
2023-06-05T02:39:16.149Z,10.48
2023-06-05T02:41:18.869Z,10.49
2023-06-05T02:43:21.221Z,10.50
2023-06-05T02:45:22.705Z,10.48
2023-06-05T02:47:24.226Z,10.47
2023-06-05T02:49:25.767Z,10.47
2023-06-05T02:51:27.300Z,10.47
2023-06-05T02:53:29.072Z,10.48
2023-06-05T02:55:30.910Z,10.49
2023-06-05T02:57:34.638Z,10.47
2023-06-05T02:59:40.435Z,10.46
2023-06-05T03:01:48.540Z,10.45
2023-06-05T03:03:50.284Z,10.45
2023-06-05T03:05:51.834Z,10.46
2023-06-05T03:07:54.584Z,10.47
2023-06-05T03:09:56.280Z,10.45
2023-06-05T03:11:58.962Z,10.46
2023-06-05T03:14:00.470Z,10.46
2023-06-05T03:16:02.448Z,10.47
2023-06-05T03:18:04.051Z,10.47
2023-06-05T03:20:07.915Z,10.46
2023-06-05T03:22:09.770Z,10.45
2023-06-05T03:24:16.628Z,10.47
2023-06-05T03:26:18.137Z,10.48
2023-06-05T03:28:20.262Z,10.48
2023-06-05T03:30:21.844Z,10.49
2023-06-05T03:32:23.345Z,10.48
2023-06-05T03:34:26.884Z,10.49
2023-06-05T03:36:29.312Z,10.50
2023-06-05T03:38:30.950Z,10.51
2023-06-05T03:40:32.686Z,10.51
2023-06-05T03:42:34.226Z,10.53
2023-06-05T03:44:35.964Z,10.53
2023-06-05T03:46:37.509Z,10.55
2023-06-05T03:48:39.016Z,10.56
2023-06-05T03:50:42.371Z,10.56
2023-06-05T03:52:44.043Z,10.58
2023-06-05T03:54:45.776Z,10.61
2023-06-05T03:56:51.116Z,10.62
2023-06-05T03:58:53.302Z,10.64
2023-06-05T04:00:55.253Z,10.67
2023-06-05T04:02:57.626Z,10.67
2023-06-05T04:04:59.244Z,10.69
2023-06-05T04:07:01.199Z,10.71
2023-06-05T04:09:04.106Z,10.74
2023-06-05T04:11:05.721Z,10.78
2023-06-05T04:13:07.304Z,10.84
2023-06-05T04:15:10.402Z,10.89
2023-06-05T04:17:13.674Z,10.95
2023-06-05T04:19:15.261Z,11.02
2023-06-05T04:21:16.720Z,11.09
2023-06-05T04:23:18.275Z,11.16
2023-06-05T04:25:19.904Z,11.23
2023-06-05T04:27:22.197Z,11.29
2023-06-05T04:29:23.665Z,11.36
2023-06-05T04:31:26.218Z,11.42
2023-06-05T04:33:27.773Z,11.46
2023-06-05T04:35:29.573Z,11.52
2023-06-05T04:37:31.116Z,11.58
2023-06-05T04:39:32.612Z,11.64
2023-06-05T04:41:34.398Z,11.70
2023-06-05T04:43:35.993Z,11.76
2023-06-05T04:45:37.457Z,11.82
2023-06-05T04:47:39.107Z,11.91
2023-06-05T04:49:41.014Z,11.99
2023-06-05T04:51:43.748Z,12.08
2023-06-05T04:53:45.268Z,12.14
2023-06-05T04:55:46.892Z,12.20
2023-06-05T04:57:49.450Z,12.26
2023-06-05T04:59:52.077Z,12.31
2023-06-05T05:01:54.568Z,12.35
2023-06-05T05:03:56.122Z,12.40
2023-06-05T05:05:57.752Z,12.46
2023-06-05T05:10:06.618Z,12.60
2023-06-05T05:12:08.363Z,12.68
2023-06-05T05:14:09.920Z,12.75
2023-06-05T05:16:12.069Z,12.78
2023-06-05T05:18:14.015Z,12.84
2023-06-05T05:20:15.717Z,12.89
2023-06-05T05:22:17.390Z,12.96
2023-06-05T05:24:19.384Z,13.03
2023-06-05T05:26:21.326Z,13.08
2023-06-05T05:28:23.189Z,13.13
2023-06-05T05:30:24.758Z,13.14
2023-06-05T05:32:26.318Z,13.15
2023-06-05T05:34:27.806Z,13.13
2023-06-05T05:36:29.495Z,13.17
2023-06-05T05:38:31.057Z,13.14
2023-06-05T05:40:32.579Z,13.15
2023-06-05T05:42:34.070Z,13.17
2023-06-05T05:44:36.877Z,13.22
2023-06-05T05:46:38.530Z,13.22
2023-06-05T05:48:40.042Z,13.25
2023-06-05T05:50:41.995Z,13.26
2023-06-05T05:52:44.240Z,13.32
2023-06-05T05:54:45.860Z,13.37
2023-06-05T05:56:48.496Z,13.41
2023-06-05T05:58:50.038Z,13.46
2023-06-05T06:00:51.796Z,13.54
2023-06-05T06:02:54.124Z,13.61
2023-06-05T06:04:55.681Z,13.68
2023-06-05T06:06:57.473Z,13.75
2023-06-05T06:08:59.073Z,13.77
2023-06-05T06:11:01.661Z,13.84
2023-06-05T06:13:05.499Z,13.93
2023-06-05T06:15:07.879Z,14.00
2023-06-05T06:17:12.109Z,14.05
2023-06-05T06:19:15.505Z,14.13
2023-06-05T06:21:17.397Z,14.19
2023-06-05T06:23:18.906Z,14.28
2023-06-05T06:25:22.368Z,14.40
2023-06-05T06:27:34.676Z,14.50
2023-06-05T06:29:53.389Z,14.59
2023-06-05T06:31:54.890Z,14.60
2023-06-05T06:33:56.358Z,14.63
2023-06-05T06:35:59.618Z,14.71
2023-06-05T06:38:01.266Z,14.76
2023-06-05T06:40:02.799Z,14.88
2023-06-05T06:42:04.410Z,14.96
2023-06-05T06:44:06.501Z,15.00
2023-06-05T06:46:08.039Z,15.05
2023-06-05T06:48:09.660Z,15.12
2023-06-05T06:50:11.596Z,15.18
2023-06-05T06:52:13.184Z,15.22
2023-06-05T06:54:14.688Z,15.25
2023-06-05T06:56:18.776Z,15.34
2023-06-05T06:58:20.294Z,15.38
2023-06-05T07:00:21.994Z,15.47
2023-06-05T07:02:25.660Z,15.52
2023-06-05T07:04:27.271Z,15.55
2023-06-05T07:06:28.758Z,15.51
2023-06-05T07:08:30.620Z,15.43
2023-06-05T07:10:32.156Z,15.50
2023-06-05T07:12:33.638Z,15.58
2023-06-05T07:14:35.189Z,15.70
2023-06-05T07:16:36.859Z,15.82
2023-06-05T07:18:38.748Z,15.88
2023-06-05T07:20:40.863Z,15.91
2023-06-05T07:22:46.943Z,16.00
2023-06-05T07:24:49.904Z,16.08
2023-06-05T07:27:02.105Z,16.12
2023-06-05T07:29:03.608Z,16.18
2023-06-05T07:31:05.351Z,16.22
2023-06-05T07:33:10.393Z,16.25
2023-06-05T07:35:15.487Z,16.20
2023-06-05T07:37:17.100Z,16.27
2023-06-05T07:39:20.713Z,16.35
2023-06-05T07:41:22.272Z,16.36
2023-06-05T07:43:24.255Z,16.45
2023-06-05T07:45:26.089Z,16.51
2023-06-05T07:47:30.129Z,16.56
2023-06-05T07:49:34.419Z,16.59
2023-06-05T07:51:38.159Z,16.65
2023-06-05T07:53:39.675Z,16.73
2023-06-05T07:55:41.174Z,16.76
2023-06-05T07:57:42.841Z,16.83
2023-06-05T07:59:44.595Z,16.89
2023-06-05T08:01:46.544Z,16.91
2023-06-05T08:03:48.315Z,16.97
2023-06-05T08:05:51.022Z,17.01
2023-06-05T08:07:52.578Z,17.01
2023-06-05T08:09:54.079Z,17.06
2023-06-05T08:11:56.234Z,17.13
2023-06-05T08:13:58.594Z,17.19
2023-06-05T08:16:00.144Z,17.26
2023-06-05T08:18:02.254Z,17.31
2023-06-05T08:20:06.458Z,17.34
2023-06-05T08:22:07.991Z,17.37
2023-06-05T08:24:09.696Z,17.44
2023-06-05T08:26:12.093Z,17.52
2023-06-05T08:28:13.668Z,17.57
2023-06-05T08:30:15.169Z,17.63
2023-06-05T08:32:18.814Z,17.69
2023-06-05T08:34:20.443Z,17.74
2023-06-05T08:36:22.262Z,17.73
2023-06-05T08:38:23.931Z,17.76
2023-06-05T08:40:29.547Z,17.69
2023-06-05T08:42:31.091Z,17.65
2023-06-05T08:44:33.822Z,17.65
2023-06-05T08:46:38.154Z,17.80
2023-06-05T08:48:47.317Z,17.93
2023-06-05T08:50:49.786Z,18.05
2023-06-05T08:52:52.830Z,18.15
2023-06-05T08:54:54.498Z,18.20
2023-06-05T08:56:56.242Z,18.25
2023-06-05T08:58:58.473Z,18.29
2023-06-05T09:01:01.194Z,18.33
2023-06-05T09:03:03.077Z,18.38
2023-06-05T09:05:05.463Z,18.44
2023-06-05T09:07:08.134Z,18.50
2023-06-05T09:09:11.059Z,18.56
2023-06-05T09:11:28.022Z,18.62
2023-06-05T09:13:46.149Z,18.64
2023-06-05T09:15:51.628Z,18.68
2023-06-05T09:18:13.469Z,18.82
2023-06-05T09:20:25.335Z,18.92
2023-06-05T09:22:35.647Z,18.98
2023-06-05T09:24:38.650Z,18.96
2023-06-05T09:26:59.016Z,18.92
2023-06-05T09:29:03.404Z,18.97
2023-06-05T09:31:05.395Z,19.07
2023-06-05T09:33:10.503Z,19.10
2023-06-05T09:35:17.610Z,19.12
2023-06-05T09:37:19.090Z,19.14
2023-06-05T09:39:21.394Z,19.23
2023-06-05T09:41:22.909Z,19.32
2023-06-05T09:43:24.387Z,19.40
2023-06-05T09:45:42.803Z,19.51
2023-06-05T09:47:53.754Z,19.60
2023-06-05T09:49:56.997Z,19.69
2023-06-05T09:52:00.560Z,19.82
2023-06-05T09:54:04.007Z,19.92
2023-06-05T09:56:05.595Z,20.01
2023-06-05T09:58:14.360Z,20.08
2023-06-05T10:00:18.900Z,20.15
2023-06-05T10:02:26.893Z,20.15
2023-06-05T10:04:30.707Z,20.22
2023-06-05T10:06:33.941Z,20.31
2023-06-05T10:08:35.439Z,20.39
2023-06-05T10:10:37.698Z,20.46
2023-06-05T10:12:40.054Z,20.56
2023-06-05T10:14:43.780Z,20.65
2023-06-05T10:16:49.323Z,20.75
2023-06-05T10:18:51.062Z,20.88
2023-06-05T10:20:55.036Z,20.98
2023-06-05T10:22:57.341Z,21.10
2023-06-05T10:25:05.183Z,21.26
2023-06-05T10:27:12.680Z,21.43
2023-06-05T10:29:32.609Z,21.68
2023-06-05T10:31:43.482Z,21.89
2023-06-05T10:33:45.108Z,22.02
2023-06-05T10:35:52.817Z,22.19
2023-06-05T10:38:00.182Z,22.40
2023-06-05T10:40:02.392Z,22.58
2023-06-05T10:42:04.209Z,22.84
2023-06-05T10:44:05.983Z,23.08
2023-06-05T10:46:36.657Z,23.46
2023-06-05T10:49:09.540Z,23.75
2023-06-05T10:51:50.076Z,24.02
2023-06-05T10:53:51.731Z,24.28
2023-06-05T10:55:53.452Z,24.47
2023-06-05T10:58:15.057Z,24.79
2023-06-05T11:00:17.239Z,24.99
2023-06-05T11:02:20.313Z,25.13
2023-06-05T11:04:21.827Z,25.32
2023-06-05T11:06:24.849Z,25.63
2023-06-05T11:08:26.807Z,26.01
2023-06-05T11:10:28.435Z,26.32
2023-06-05T11:12:35.945Z,26.66
2023-06-05T11:14:44.404Z,26.91
2023-06-05T11:16:46.720Z,27.09
2023-06-05T11:18:48.253Z,27.22
2023-06-05T11:20:50.322Z,27.22
2023-06-05T11:22:54.672Z,26.99
2023-06-05T11:25:14.801Z,27.13
2023-06-05T11:27:47.826Z,27.49
2023-06-05T11:29:50.921Z,27.67
2023-06-05T11:31:53.363Z,27.78
2023-06-05T11:33:54.996Z,27.72
2023-06-05T11:36:02.132Z,27.83
2023-06-05T11:38:13.599Z,28.20
2023-06-05T11:40:25.797Z,28.55
2023-06-05T11:42:27.354Z,28.74
2023-06-05T11:44:34.068Z,28.87
2023-06-05T11:46:40.486Z,29.18
2023-06-05T11:48:46.465Z,29.32
2023-06-05T11:50:54.675Z,29.46
2023-06-05T11:53:04.229Z,29.55
2023-06-05T11:55:22.767Z,29.72
2023-06-05T11:57:39.663Z,29.49
2023-06-05T11:59:45.997Z,28.63
2023-06-05T12:01:47.762Z,28.88
2023-06-05T12:04:02.972Z,29.35
2023-06-05T12:06:04.742Z,29.78
2023-06-05T12:08:26.426Z,29.99
2023-06-05T12:10:36.372Z,29.96
2023-06-05T12:12:54.692Z,29.89
2023-06-05T12:14:57.170Z,29.62
2023-06-05T12:17:01.289Z,29.49
2023-06-05T12:19:14.655Z,29.17
2023-06-05T12:21:24.684Z,28.46
2023-06-05T12:23:26.543Z,28.29
2023-06-05T12:25:28.112Z,28.40
2023-06-05T12:27:35.923Z,28.17
2023-06-05T12:29:40.233Z,28.02
2023-06-05T12:31:43.040Z,27.55
2023-06-05T12:33:49.489Z,27.66
2023-06-05T12:36:07.576Z,27.21
2023-06-05T12:38:09.440Z,26.76
2023-06-05T12:40:12.693Z,26.97
2023-06-05T12:42:14.606Z,27.07
2023-06-05T12:44:16.149Z,27.14
2023-06-05T12:46:17.657Z,26.93
2023-06-05T12:48:20.254Z,26.72
2023-06-05T12:50:22.328Z,26.71
2023-06-05T12:52:27.333Z,26.57
2023-06-05T12:54:29.406Z,26.51
2023-06-05T12:56:32.049Z,26.28
2023-06-05T12:58:33.513Z,26.20
2023-06-05T13:00:35.066Z,26.12
2023-06-05T13:02:37.485Z,25.96
2023-06-05T13:04:40.872Z,25.76
2023-06-05T13:06:42.632Z,25.58
2023-06-05T13:08:44.537Z,25.35
2023-06-05T13:10:46.049Z,25.49
2023-06-05T13:12:47.577Z,25.26
2023-06-05T13:14:49.135Z,25.28
2023-06-05T13:16:50.785Z,25.20
2023-06-05T13:18:52.287Z,24.98
2023-06-05T13:20:53.962Z,25.08
2023-06-05T13:22:55.442Z,25.06
2023-06-05T13:24:56.940Z,25.12
2023-06-05T13:26:58.691Z,25.19
2023-06-05T13:29:00.446Z,25.16
2023-06-05T13:31:03.643Z,24.96
2023-06-05T13:33:05.303Z,24.63
2023-06-05T13:35:09.126Z,24.35
2023-06-05T13:37:14.727Z,24.23
2023-06-05T13:39:17.208Z,24.20
2023-06-05T13:41:18.966Z,24.25
2023-06-05T13:43:20.688Z,23.94
2023-06-05T13:45:22.372Z,23.65
2023-06-05T13:47:23.917Z,23.46
2023-06-05T13:49:25.725Z,23.31
2023-06-05T13:51:27.958Z,23.16
2023-06-05T13:53:35.069Z,23.12
2023-06-05T13:55:37.444Z,23.10
2023-06-05T13:57:38.988Z,23.06
2023-06-05T13:59:40.578Z,23.08
2023-06-05T14:01:42.360Z,23.11
2023-06-05T14:03:44.698Z,23.24
2023-06-05T14:05:46.279Z,23.24
2023-06-05T14:07:50.455Z,23.18
2023-06-05T14:09:52.171Z,23.10
2023-06-05T14:11:53.697Z,22.94
2023-06-05T14:13:55.291Z,22.88
2023-06-05T14:15:57.100Z,22.94
2023-06-05T14:17:58.705Z,22.90
2023-06-05T14:20:00.247Z,22.74
2023-06-05T14:22:02.051Z,22.65
2023-06-05T14:24:03.704Z,22.56
2023-06-05T14:26:05.616Z,22.48
2023-06-05T14:28:08.500Z,22.44
2023-06-05T14:30:10.535Z,22.42
2023-06-05T14:32:12.013Z,22.42
2023-06-05T14:34:13.594Z,22.35
2023-06-05T14:36:16.289Z,22.36
2023-06-05T14:38:17.779Z,22.41
2023-06-05T14:40:19.714Z,22.46
2023-06-05T14:42:21.305Z,22.55
2023-06-05T14:44:23.876Z,22.62
2023-06-05T14:46:25.833Z,22.56
2023-06-05T14:48:27.489Z,22.46
2023-06-05T14:50:29.008Z,22.40
2023-06-05T14:52:30.624Z,22.29
2023-06-05T14:54:32.086Z,22.22
2023-06-05T14:56:33.567Z,22.41
2023-06-05T14:58:35.045Z,22.49
2023-06-05T15:00:36.537Z,22.42
2023-06-05T15:02:38.041Z,22.31
2023-06-05T15:04:39.669Z,22.21
2023-06-05T15:06:41.466Z,22.14
2023-06-05T15:08:42.960Z,22.05
2023-06-05T15:10:44.440Z,21.98
2023-06-05T15:12:45.934Z,21.88
2023-06-05T15:14:47.396Z,21.69
2023-06-05T15:16:49.167Z,21.57
2023-06-05T15:18:51.363Z,21.53
2023-06-05T15:20:54.050Z,21.72
2023-06-05T15:25:00.937Z,21.76
2023-06-05T15:27:02.521Z,21.58
2023-06-05T15:29:04.002Z,21.41
2023-06-05T15:31:07.887Z,21.25
2023-06-05T15:33:09.881Z,21.13
2023-06-05T15:35:11.723Z,20.98
2023-06-05T15:37:13.189Z,20.94
2023-06-05T15:39:14.715Z,20.99
2023-06-05T15:41:16.493Z,20.91
2023-06-05T15:43:18.326Z,20.82
2023-06-05T15:45:19.945Z,20.67
2023-06-05T15:47:21.523Z,20.57
2023-06-05T15:49:22.974Z,20.51
2023-06-05T15:51:28.348Z,20.52
2023-06-05T15:53:31.251Z,20.52
2023-06-05T15:55:40.070Z,20.54
2023-06-05T15:57:42.135Z,20.63
2023-06-05T15:59:46.015Z,20.77
2023-06-05T16:01:49.835Z,20.68
2023-06-05T16:03:51.515Z,20.61
2023-06-05T16:05:53.094Z,20.53
2023-06-05T16:07:54.666Z,20.45
2023-06-05T16:09:56.154Z,20.36
2023-06-05T16:11:57.689Z,20.40
2023-06-05T16:13:59.148Z,20.47
2023-06-05T16:16:00.817Z,20.52
2023-06-05T16:18:02.366Z,20.47
2023-06-05T16:20:04.139Z,20.37
2023-06-05T16:22:06.021Z,20.25
2023-06-05T16:24:08.046Z,20.15
2023-06-05T16:26:09.798Z,20.16
2023-06-05T16:28:11.342Z,20.16
2023-06-05T16:30:13.026Z,20.26
2023-06-05T16:32:14.956Z,20.33
2023-06-05T16:34:16.871Z,20.31
2023-06-05T16:36:19.268Z,20.32
2023-06-05T16:38:20.856Z,20.30
2023-06-05T16:40:22.359Z,20.18
2023-06-05T16:42:26.293Z,20.03
2023-06-05T16:44:27.795Z,19.99
2023-06-05T16:46:29.422Z,19.98
2023-06-05T16:48:31.229Z,20.01
2023-06-05T16:50:32.876Z,20.01
2023-06-05T16:52:34.426Z,19.99
2023-06-05T16:54:36.608Z,19.95
2023-06-05T16:56:38.150Z,19.95
2023-06-05T16:58:39.732Z,20.05
2023-06-05T17:00:41.254Z,20.20
2023-06-05T17:02:43.418Z,20.29
2023-06-05T17:04:45.390Z,20.25
2023-06-05T17:06:48.184Z,20.20
2023-06-05T17:08:49.932Z,20.17
2023-06-05T17:10:51.564Z,20.03
2023-06-05T17:12:53.039Z,19.92
2023-06-05T17:14:54.500Z,19.92
2023-06-05T17:16:55.992Z,19.96
2023-06-05T17:18:58.342Z,19.81
2023-06-05T17:20:59.806Z,19.62
2023-06-05T17:23:01.327Z,19.53
2023-06-05T17:25:08.486Z,19.51
2023-06-05T17:27:11.086Z,19.48
2023-06-05T17:29:12.583Z,19.40
2023-06-05T17:31:14.285Z,19.33
2023-06-05T17:33:16.122Z,19.24
2023-06-05T17:35:17.719Z,19.17
2023-06-05T17:37:19.218Z,19.07
2023-06-05T17:39:20.743Z,18.95
2023-06-05T17:41:22.482Z,18.87
2023-06-05T17:43:24.017Z,18.82
2023-06-05T17:45:26.433Z,18.83
2023-06-05T17:47:28.056Z,18.77
2023-06-05T17:49:30.233Z,18.69
2023-06-05T17:51:32.158Z,18.67
2023-06-05T17:53:33.731Z,18.71
2023-06-05T17:55:35.223Z,18.74
2023-06-05T17:57:36.737Z,18.69
2023-06-05T17:59:38.334Z,18.69
2023-06-05T18:01:40.180Z,18.66
2023-06-05T18:03:41.975Z,18.59
2023-06-05T18:05:43.519Z,18.52
2023-06-05T18:07:45.101Z,18.46
2023-06-05T18:09:46.572Z,18.44
2023-06-05T18:11:51.124Z,18.39
2023-06-05T18:13:52.947Z,18.29
2023-06-05T18:15:54.445Z,18.17
2023-06-05T18:17:56.259Z,18.14
2023-06-05T18:19:58.087Z,18.14
2023-06-05T18:21:59.669Z,18.13
2023-06-05T18:24:01.274Z,18.06
2023-06-05T18:26:02.772Z,18.07
2023-06-05T18:28:04.257Z,18.02
2023-06-05T18:30:06.573Z,18.05
2023-06-05T18:32:08.204Z,17.99
2023-06-05T18:34:10.277Z,18.02
2023-06-05T18:36:12.078Z,17.97
2023-06-05T18:38:13.599Z,17.82
2023-06-05T18:40:15.222Z,17.69
2023-06-05T18:42:16.746Z,17.64
2023-06-05T18:44:18.226Z,17.56
2023-06-05T18:46:19.733Z,17.38
2023-06-05T18:48:21.293Z,17.21
2023-06-05T18:50:23.276Z,17.08
2023-06-05T18:52:24.833Z,16.99
2023-06-05T18:54:26.523Z,16.91
2023-06-05T18:56:28.181Z,16.87
2023-06-05T18:58:29.713Z,16.81
2023-06-05T19:00:31.227Z,16.79
2023-06-05T19:02:32.738Z,16.69
2023-06-05T19:04:34.320Z,16.59
2023-06-05T19:06:35.939Z,16.52
2023-06-05T19:08:37.615Z,16.45
2023-06-05T19:10:39.143Z,16.38
2023-06-05T19:12:41.804Z,16.26
2023-06-05T19:14:43.335Z,16.24
2023-06-05T19:16:44.904Z,16.18
2023-06-05T19:18:46.386Z,16.07
2023-06-05T19:20:48.035Z,16.01
2023-06-05T19:22:49.773Z,16.02
2023-06-05T19:24:51.405Z,15.94
2023-06-05T19:26:53.929Z,15.88
2023-06-05T19:28:55.677Z,15.86
2023-06-05T19:30:57.213Z,15.79
2023-06-05T19:32:58.928Z,15.78
2023-06-05T19:35:00.637Z,15.67
2023-06-05T19:37:02.270Z,15.54
2023-06-05T19:39:04.050Z,15.44
2023-06-05T19:41:05.969Z,15.35
2023-06-05T19:43:07.560Z,15.33
2023-06-05T19:45:10.725Z,15.28
2023-06-05T19:47:12.532Z,15.19
2023-06-05T19:49:15.266Z,15.13
2023-06-05T19:51:16.768Z,15.07
2023-06-05T19:53:18.383Z,15.08
2023-06-05T19:55:19.970Z,15.06
2023-06-05T19:57:21.591Z,15.04
2023-06-05T19:59:23.403Z,14.97
2023-06-05T20:01:26.493Z,14.92
2023-06-05T20:03:28.100Z,14.91
2023-06-05T20:05:29.729Z,14.81
2023-06-05T20:07:31.202Z,14.74
2023-06-05T20:09:32.689Z,14.68
2023-06-05T20:11:34.291Z,14.68
2023-06-05T20:13:36.095Z,14.67
2023-06-05T20:15:38.482Z,14.68
2023-06-05T20:17:40.093Z,14.63
2023-06-05T20:19:42.028Z,14.60
2023-06-05T20:21:46.695Z,14.57
2023-06-05T20:23:51.531Z,14.53
2023-06-05T20:25:53.512Z,14.47
2023-06-05T20:27:55.024Z,14.43
2023-06-05T20:29:56.601Z,14.41
2023-06-05T20:31:58.223Z,14.37
2023-06-05T20:34:00.460Z,14.32
2023-06-05T20:36:06.284Z,14.28
2023-06-05T20:38:09.059Z,14.25
2023-06-05T20:40:11.551Z,14.24
2023-06-05T20:42:15.312Z,14.23
2023-06-05T20:44:18.331Z,14.20
2023-06-05T20:46:21.728Z,14.14
2023-06-05T20:48:26.885Z,14.10
2023-06-05T20:50:28.440Z,14.04
2023-06-05T20:52:30.087Z,14.02
2023-06-05T20:54:31.612Z,13.97
2023-06-05T20:56:33.110Z,13.94
2023-06-05T20:58:34.589Z,13.92
2023-06-05T21:00:36.084Z,13.88
2023-06-05T21:02:37.717Z,13.82
2023-06-05T21:04:43.926Z,13.79
2023-06-05T21:06:45.442Z,13.79
2023-06-05T21:08:47.212Z,13.81
2023-06-05T21:10:48.670Z,13.81
2023-06-05T21:12:50.342Z,13.81
2023-06-05T21:14:52.994Z,13.76
2023-06-05T21:16:54.582Z,13.72
2023-06-05T21:18:56.177Z,13.67
2023-06-05T21:20:57.660Z,13.63
2023-06-05T21:22:59.214Z,13.60
2023-06-05T21:25:00.776Z,13.58
2023-06-05T21:27:02.846Z,13.56
2023-06-05T21:29:04.351Z,13.51
2023-06-05T21:31:06.599Z,13.49
2023-06-05T21:33:08.966Z,13.47
2023-06-05T21:35:10.574Z,13.47
2023-06-05T21:37:16.254Z,13.41
2023-06-05T21:39:17.708Z,13.32
2023-06-05T21:41:19.206Z,13.27
2023-06-05T21:43:20.848Z,13.26
2023-06-05T21:45:22.375Z,13.27
2023-06-05T21:47:23.949Z,13.26
2023-06-05T21:49:25.597Z,13.25
2023-06-05T21:51:27.080Z,13.26
2023-06-05T21:53:28.564Z,13.26
2023-06-05T21:55:30.147Z,13.25
2023-06-05T21:57:31.674Z,13.26
2023-06-05T21:59:33.172Z,13.27
2023-06-05T22:01:34.704Z,13.31
2023-06-05T22:03:36.327Z,13.34
2023-06-05T22:05:38.571Z,13.35
2023-06-05T22:07:41.725Z,13.40
2023-06-05T22:09:43.499Z,13.43
2023-06-05T22:11:44.993Z,13.43
2023-06-05T22:13:46.478Z,13.43
2023-06-05T22:15:48.638Z,13.43
2023-06-05T22:17:52.348Z,13.39
2023-06-05T22:19:56.080Z,13.37
2023-06-05T22:21:58.057Z,13.35
2023-06-05T22:24:00.517Z,13.36
2023-06-05T22:26:02.033Z,13.35
2023-06-05T22:28:03.622Z,13.34
2023-06-05T22:30:06.529Z,13.32
2023-06-05T22:32:08.223Z,13.31
2023-06-05T22:34:09.785Z,13.28
2023-06-05T22:36:11.615Z,13.26
2023-06-05T22:38:13.155Z,13.23
2023-06-05T22:40:14.682Z,13.22
2023-06-05T22:42:16.153Z,13.21
2023-06-05T22:44:17.622Z,13.22
2023-06-05T22:46:19.359Z,13.18
2023-06-05T22:48:21.731Z,13.16
2023-06-05T22:50:23.243Z,13.17
2023-06-05T22:52:25.700Z,13.16
2023-06-05T22:54:27.144Z,13.16
2023-06-05T22:56:28.642Z,13.16
2023-06-05T22:58:30.145Z,13.15
2023-06-05T23:00:31.597Z,13.15
2023-06-05T23:02:33.103Z,13.17
2023-06-05T23:04:39.833Z,13.16
2023-06-05T23:06:42.437Z,13.13
2023-06-05T23:08:43.946Z,13.12
2023-06-05T23:10:45.631Z,13.09
2023-06-05T23:12:48.102Z,13.05
2023-06-05T23:14:49.562Z,13.03
2023-06-05T23:16:51.388Z,13.02
2023-06-05T23:18:52.911Z,13.03
2023-06-05T23:20:54.401Z,13.02
2023-06-05T23:22:55.857Z,12.99
2023-06-05T23:24:57.301Z,12.99
2023-06-05T23:26:58.858Z,12.99
2023-06-05T23:29:00.338Z,12.97
2023-06-05T23:31:01.779Z,12.96
2023-06-05T23:33:03.501Z,12.96
2023-06-05T23:35:05.258Z,12.95
2023-06-05T23:37:09.720Z,12.93
2023-06-05T23:39:12.166Z,12.88
2023-06-05T23:41:13.626Z,12.84
2023-06-05T23:43:15.078Z,12.82
2023-06-05T23:45:16.896Z,12.81
2023-06-05T23:47:18.560Z,12.80
2023-06-05T23:49:20.180Z,12.78
2023-06-05T23:51:21.916Z,12.78
2023-06-05T23:53:23.474Z,12.77
2023-06-05T23:55:25.716Z,12.76
2023-06-05T23:57:27.350Z,12.74
2023-06-05T23:59:28.809Z,12.73
